sensor_id;sensor_type;location;lat;lon;timestamp;P1;durP1;ratioP1;P2;durP2;ratioP2
44842;SDS011;31884;52.538;13.820;2023-06-14T00:02:11;4.35;;;3.00;;
44842;SDS011;31884;52.538;13.820;2023-06-14T00:04:37;4.80;;;2.60;;
44842;SDS011;31884;52.538;13.820;2023-06-14T00:07:04;3.70;;;2.40;;
44842;SDS011;31884;52.538;13.820;2023-06-14T00:09:33;3.70;;;2.33;;
44842;SDS011;31884;52.538;13.820;2023-06-14T00:11:58;2.85;;;2.42;;
44842;SDS011;31884;52.538;13.820;2023-06-14T00:14:24;6.10;;;3.40;;
44842;SDS011;31884;52.538;13.820;2023-06-14T00:16:49;3.53;;;2.53;;
44842;SDS011;31884;52.538;13.820;2023-06-14T00:19:17;3.28;;;2.42;;
44842;SDS011;31884;52.538;13.820;2023-06-14T00:21:44;3.28;;;2.47;;
44842;SDS011;31884;52.538;13.820;2023-06-14T00:24:10;3.85;;;2.90;;
44842;SDS011;31884;52.538;13.820;2023-06-14T00:26:36;3.88;;;2.55;;
44842;SDS011;31884;52.538;13.820;2023-06-14T00:29:01;5.90;;;2.60;;
44842;SDS011;31884;52.538;13.820;2023-06-14T00:31:27;5.75;;;3.10;;
44842;SDS011;31884;52.538;13.820;2023-06-14T00:33:53;5.13;;;2.70;;
44842;SDS011;31884;52.538;13.820;2023-06-14T00:36:18;4.65;;;2.85;;
44842;SDS011;31884;52.538;13.820;2023-06-14T00:38:44;3.25;;;2.53;;
44842;SDS011;31884;52.538;13.820;2023-06-14T00:41:09;3.05;;;2.10;;
44842;SDS011;31884;52.538;13.820;2023-06-14T00:43:35;3.75;;;2.70;;
44842;SDS011;31884;52.538;13.820;2023-06-14T00:46:00;2.50;;;2.30;;
44842;SDS011;31884;52.538;13.820;2023-06-14T00:48:26;3.58;;;2.35;;
44842;SDS011;31884;52.538;13.820;2023-06-14T00:50:53;3.65;;;2.60;;
44842;SDS011;31884;52.538;13.820;2023-06-14T00:53:19;3.22;;;2.03;;
44842;SDS011;31884;52.538;13.820;2023-06-14T00:55:47;3.30;;;2.40;;
44842;SDS011;31884;52.538;13.820;2023-06-14T00:58:13;3.53;;;2.42;;
44842;SDS011;31884;52.538;13.820;2023-06-14T01:00:39;5.65;;;2.70;;
44842;SDS011;31884;52.538;13.820;2023-06-14T01:03:05;3.08;;;2.28;;
44842;SDS011;31884;52.538;13.820;2023-06-14T01:05:31;4.28;;;2.28;;
44842;SDS011;31884;52.538;13.820;2023-06-14T01:10:52;2.38;;;2.05;;
44842;SDS011;31884;52.538;13.820;2023-06-14T01:13:29;4.55;;;2.35;;
44842;SDS011;31884;52.538;13.820;2023-06-14T01:16:01;2.83;;;2.08;;
44842;SDS011;31884;52.538;13.820;2023-06-14T01:18:28;4.10;;;2.08;;
44842;SDS011;31884;52.538;13.820;2023-06-14T01:20:54;3.15;;;1.98;;
44842;SDS011;31884;52.538;13.820;2023-06-14T01:23:21;3.63;;;2.33;;
44842;SDS011;31884;52.538;13.820;2023-06-14T01:25:47;4.75;;;2.75;;
44842;SDS011;31884;52.538;13.820;2023-06-14T01:28:17;4.63;;;2.28;;
44842;SDS011;31884;52.538;13.820;2023-06-14T01:30:45;7.68;;;2.53;;
44842;SDS011;31884;52.538;13.820;2023-06-14T01:33:17;3.05;;;2.20;;
44842;SDS011;31884;52.538;13.820;2023-06-14T01:35:45;3.30;;;2.40;;
44842;SDS011;31884;52.538;13.820;2023-06-14T01:38:13;3.97;;;2.33;;
44842;SDS011;31884;52.538;13.820;2023-06-14T01:40:39;5.93;;;2.53;;
44842;SDS011;31884;52.538;13.820;2023-06-14T01:43:06;2.88;;;2.35;;
44842;SDS011;31884;52.538;13.820;2023-06-14T01:45:32;2.28;;;1.90;;
44842;SDS011;31884;52.538;13.820;2023-06-14T01:47:59;4.47;;;2.72;;
44842;SDS011;31884;52.538;13.820;2023-06-14T01:50:29;5.97;;;2.65;;
44842;SDS011;31884;52.538;13.820;2023-06-14T01:52:56;3.50;;;2.58;;
44842;SDS011;31884;52.538;13.820;2023-06-14T01:55:21;7.50;;;2.78;;
44842;SDS011;31884;52.538;13.820;2023-06-14T01:57:47;3.22;;;2.30;;
44842;SDS011;31884;52.538;13.820;2023-06-14T02:00:13;3.75;;;2.53;;
44842;SDS011;31884;52.538;13.820;2023-06-14T02:02:40;3.47;;;2.40;;
44842;SDS011;31884;52.538;13.820;2023-06-14T02:05:05;4.32;;;2.75;;
44842;SDS011;31884;52.538;13.820;2023-06-14T02:07:32;8.02;;;3.40;;
44842;SDS011;31884;52.538;13.820;2023-06-14T02:09:58;5.45;;;2.97;;
44842;SDS011;31884;52.538;13.820;2023-06-14T02:12:24;4.22;;;2.97;;
44842;SDS011;31884;52.538;13.820;2023-06-14T02:14:49;4.78;;;3.35;;
44842;SDS011;31884;52.538;13.820;2023-06-14T02:17:14;4.72;;;3.42;;
44842;SDS011;31884;52.538;13.820;2023-06-14T02:19:41;6.00;;;3.08;;
44842;SDS011;31884;52.538;13.820;2023-06-14T02:22:07;6.68;;;3.20;;
44842;SDS011;31884;52.538;13.820;2023-06-14T02:24:32;4.68;;;3.13;;
44842;SDS011;31884;52.538;13.820;2023-06-14T02:26:58;5.88;;;3.15;;
44842;SDS011;31884;52.538;13.820;2023-06-14T02:29:23;6.90;;;4.10;;
44842;SDS011;31884;52.538;13.820;2023-06-14T02:31:49;8.68;;;3.70;;
44842;SDS011;31884;52.538;13.820;2023-06-14T02:34:15;5.15;;;2.55;;
44842;SDS011;31884;52.538;13.820;2023-06-14T02:36:42;4.18;;;3.17;;
44842;SDS011;31884;52.538;13.820;2023-06-14T02:39:10;4.60;;;3.22;;
44842;SDS011;31884;52.538;13.820;2023-06-14T02:41:36;3.92;;;3.10;;
44842;SDS011;31884;52.538;13.820;2023-06-14T02:44:01;3.65;;;2.85;;
44842;SDS011;31884;52.538;13.820;2023-06-14T02:46:27;5.40;;;3.15;;
44842;SDS011;31884;52.538;13.820;2023-06-14T02:48:53;4.95;;;3.22;;
44842;SDS011;31884;52.538;13.820;2023-06-14T02:51:18;4.40;;;2.88;;
44842;SDS011;31884;52.538;13.820;2023-06-14T02:53:44;4.00;;;3.33;;
44842;SDS011;31884;52.538;13.820;2023-06-14T02:56:09;4.60;;;3.42;;
44842;SDS011;31884;52.538;13.820;2023-06-14T02:58:36;5.85;;;2.78;;
44842;SDS011;31884;52.538;13.820;2023-06-14T03:01:04;5.25;;;3.08;;
44842;SDS011;31884;52.538;13.820;2023-06-14T03:03:30;4.28;;;3.33;;
44842;SDS011;31884;52.538;13.820;2023-06-14T03:05:56;6.85;;;3.17;;
44842;SDS011;31884;52.538;13.820;2023-06-14T03:08:22;4.32;;;3.15;;
44842;SDS011;31884;52.538;13.820;2023-06-14T03:10:52;5.00;;;3.63;;
44842;SDS011;31884;52.538;13.820;2023-06-14T03:13:18;4.22;;;3.22;;
44842;SDS011;31884;52.538;13.820;2023-06-14T03:15:47;6.20;;;3.30;;
44842;SDS011;31884;52.538;13.820;2023-06-14T03:18:15;5.07;;;3.13;;
44842;SDS011;31884;52.538;13.820;2023-06-14T03:20:44;6.05;;;3.25;;
44842;SDS011;31884;52.538;13.820;2023-06-14T03:23:10;4.72;;;3.35;;
44842;SDS011;31884;52.538;13.820;2023-06-14T03:25:36;3.85;;;2.72;;
44842;SDS011;31884;52.538;13.820;2023-06-14T03:28:03;5.00;;;2.90;;
44842;SDS011;31884;52.538;13.820;2023-06-14T03:30:30;5.28;;;3.00;;
44842;SDS011;31884;52.538;13.820;2023-06-14T03:32:56;3.90;;;2.97;;
44842;SDS011;31884;52.538;13.820;2023-06-14T03:35:22;6.03;;;3.20;;
44842;SDS011;31884;52.538;13.820;2023-06-14T03:37:48;10.90;;;3.70;;
44842;SDS011;31884;52.538;13.820;2023-06-14T03:40:14;6.95;;;3.10;;
44842;SDS011;31884;52.538;13.820;2023-06-14T03:42:41;6.68;;;3.38;;
44842;SDS011;31884;52.538;13.820;2023-06-14T03:45:06;4.15;;;2.85;;
44842;SDS011;31884;52.538;13.820;2023-06-14T03:47:32;4.72;;;2.70;;
44842;SDS011;31884;52.538;13.820;2023-06-14T03:49:59;9.38;;;2.92;;
44842;SDS011;31884;52.538;13.820;2023-06-14T03:52:25;5.68;;;2.85;;
44842;SDS011;31884;52.538;13.820;2023-06-14T03:54:51;3.42;;;2.58;;
44842;SDS011;31884;52.538;13.820;2023-06-14T03:57:16;6.50;;;2.42;;
44842;SDS011;31884;52.538;13.820;2023-06-14T03:59:42;5.00;;;3.15;;
44842;SDS011;31884;52.538;13.820;2023-06-14T04:02:07;4.28;;;3.10;;
44842;SDS011;31884;52.538;13.820;2023-06-14T04:04:34;4.90;;;2.72;;
44842;SDS011;31884;52.538;13.820;2023-06-14T04:07:00;2.83;;;2.63;;
44842;SDS011;31884;52.538;13.820;2023-06-14T04:09:28;9.05;;;3.05;;
44842;SDS011;31884;52.538;13.820;2023-06-14T04:11:54;7.65;;;3.70;;
44842;SDS011;31884;52.538;13.820;2023-06-14T04:14:20;4.80;;;3.03;;
44842;SDS011;31884;52.538;13.820;2023-06-14T04:16:46;3.92;;;3.33;;
44842;SDS011;31884;52.538;13.820;2023-06-14T04:19:12;3.83;;;3.35;;
44842;SDS011;31884;52.538;13.820;2023-06-14T04:21:38;4.45;;;3.28;;
44842;SDS011;31884;52.538;13.820;2023-06-14T04:24:03;3.35;;;2.70;;
44842;SDS011;31884;52.538;13.820;2023-06-14T04:26:29;6.45;;;3.13;;
44842;SDS011;31884;52.538;13.820;2023-06-14T04:28:58;3.78;;;2.90;;
44842;SDS011;31884;52.538;13.820;2023-06-14T04:31:26;5.25;;;3.22;;
44842;SDS011;31884;52.538;13.820;2023-06-14T04:33:58;3.67;;;3.28;;
44842;SDS011;31884;52.538;13.820;2023-06-14T04:36:24;4.88;;;3.40;;
44842;SDS011;31884;52.538;13.820;2023-06-14T04:38:51;7.13;;;3.40;;
44842;SDS011;31884;52.538;13.820;2023-06-14T04:41:19;5.65;;;3.47;;
44842;SDS011;31884;52.538;13.820;2023-06-14T04:43:48;5.32;;;3.45;;
44842;SDS011;31884;52.538;13.820;2023-06-14T04:46:14;5.13;;;3.15;;
44842;SDS011;31884;52.538;13.820;2023-06-14T04:48:40;5.75;;;3.08;;
44842;SDS011;31884;52.538;13.820;2023-06-14T04:51:10;4.45;;;3.17;;
44842;SDS011;31884;52.538;13.820;2023-06-14T04:53:35;4.55;;;3.45;;
44842;SDS011;31884;52.538;13.820;2023-06-14T04:56:01;4.85;;;3.70;;
44842;SDS011;31884;52.538;13.820;2023-06-14T04:58:28;5.85;;;4.10;;
44842;SDS011;31884;52.538;13.820;2023-06-14T05:00:54;7.55;;;3.53;;
44842;SDS011;31884;52.538;13.820;2023-06-14T05:03:21;5.05;;;3.60;;
44842;SDS011;31884;52.538;13.820;2023-06-14T05:05:49;5.70;;;3.65;;
44842;SDS011;31884;52.538;13.820;2023-06-14T05:08:15;5.25;;;4.07;;
44842;SDS011;31884;52.538;13.820;2023-06-14T05:10:41;3.55;;;3.03;;
44842;SDS011;31884;52.538;13.820;2023-06-14T05:13:07;6.13;;;3.67;;
44842;SDS011;31884;52.538;13.820;2023-06-14T05:15:32;6.38;;;4.22;;
44842;SDS011;31884;52.538;13.820;2023-06-14T05:17:58;7.13;;;4.00;;
44842;SDS011;31884;52.538;13.820;2023-06-14T05:20:24;6.32;;;4.18;;
44842;SDS011;31884;52.538;13.820;2023-06-14T05:22:50;7.05;;;4.05;;
44842;SDS011;31884;52.538;13.820;2023-06-14T05:25:17;6.47;;;3.70;;
44842;SDS011;31884;52.538;13.820;2023-06-14T05:27:43;5.63;;;4.53;;
44842;SDS011;31884;52.538;13.820;2023-06-14T05:30:09;5.63;;;4.22;;
44842;SDS011;31884;52.538;13.820;2023-06-14T05:32:35;5.10;;;3.83;;
44842;SDS011;31884;52.538;13.820;2023-06-14T05:35:01;6.10;;;4.65;;
44842;SDS011;31884;52.538;13.820;2023-06-14T05:37:26;8.50;;;4.30;;
44842;SDS011;31884;52.538;13.820;2023-06-14T05:39:52;7.80;;;4.10;;
44842;SDS011;31884;52.538;13.820;2023-06-14T05:42:17;8.30;;;4.20;;
44842;SDS011;31884;52.538;13.820;2023-06-14T05:44:43;6.00;;;4.35;;
44842;SDS011;31884;52.538;13.820;2023-06-14T05:47:08;5.80;;;4.60;;
44842;SDS011;31884;52.538;13.820;2023-06-14T05:49:33;7.38;;;3.92;;
44842;SDS011;31884;52.538;13.820;2023-06-14T05:51:59;9.10;;;4.60;;
44842;SDS011;31884;52.538;13.820;2023-06-14T05:54:24;7.57;;;4.10;;
44842;SDS011;31884;52.538;13.820;2023-06-14T05:56:50;6.00;;;4.00;;
44842;SDS011;31884;52.538;13.820;2023-06-14T05:59:16;6.50;;;4.45;;
44842;SDS011;31884;52.538;13.820;2023-06-14T06:01:41;5.05;;;4.20;;
44842;SDS011;31884;52.538;13.820;2023-06-14T06:04:07;7.35;;;4.15;;
44842;SDS011;31884;52.538;13.820;2023-06-14T06:06:32;7.65;;;4.20;;
44842;SDS011;31884;52.538;13.820;2023-06-14T06:08:58;7.13;;;4.10;;
44842;SDS011;31884;52.538;13.820;2023-06-14T06:11:23;6.70;;;3.72;;
44842;SDS011;31884;52.538;13.820;2023-06-14T06:13:49;5.78;;;3.40;;
44842;SDS011;31884;52.538;13.820;2023-06-14T06:16:14;5.22;;;4.20;;
44842;SDS011;31884;52.538;13.820;2023-06-14T06:18:40;4.88;;;3.80;;
44842;SDS011;31884;52.538;13.820;2023-06-14T06:21:05;4.80;;;3.30;;
44842;SDS011;31884;52.538;13.820;2023-06-14T06:23:31;6.53;;;4.00;;
44842;SDS011;31884;52.538;13.820;2023-06-14T06:25:57;6.78;;;4.10;;
44842;SDS011;31884;52.538;13.820;2023-06-14T06:28:22;6.05;;;4.00;;
44842;SDS011;31884;52.538;13.820;2023-06-14T06:30:48;6.75;;;3.22;;
44842;SDS011;31884;52.538;13.820;2023-06-14T06:33:13;5.78;;;4.32;;
44842;SDS011;31884;52.538;13.820;2023-06-14T06:35:39;7.25;;;4.57;;
44842;SDS011;31884;52.538;13.820;2023-06-14T06:38:05;8.57;;;4.47;;
44842;SDS011;31884;52.538;13.820;2023-06-14T06:40:30;10.00;;;4.18;;
44842;SDS011;31884;52.538;13.820;2023-06-14T06:42:56;6.93;;;4.22;;
44842;SDS011;31884;52.538;13.820;2023-06-14T06:45:21;5.60;;;3.58;;
44842;SDS011;31884;52.538;13.820;2023-06-14T06:47:48;6.72;;;3.90;;
44842;SDS011;31884;52.538;13.820;2023-06-14T06:50:15;5.55;;;3.85;;
44842;SDS011;31884;52.538;13.820;2023-06-14T06:52:40;6.28;;;3.92;;
44842;SDS011;31884;52.538;13.820;2023-06-14T06:55:06;6.80;;;4.20;;
44842;SDS011;31884;52.538;13.820;2023-06-14T06:57:32;4.72;;;4.07;;
44842;SDS011;31884;52.538;13.820;2023-06-14T06:59:57;5.05;;;3.88;;
44842;SDS011;31884;52.538;13.820;2023-06-14T07:02:23;6.63;;;3.67;;
44842;SDS011;31884;52.538;13.820;2023-06-14T07:04:49;8.90;;;3.90;;
44842;SDS011;31884;52.538;13.820;2023-06-14T07:07:14;5.78;;;3.88;;
44842;SDS011;31884;52.538;13.820;2023-06-14T07:09:40;6.10;;;4.10;;
44842;SDS011;31884;52.538;13.820;2023-06-14T07:12:06;5.45;;;3.55;;
44842;SDS011;31884;52.538;13.820;2023-06-14T07:14:32;5.93;;;3.83;;
44842;SDS011;31884;52.538;13.820;2023-06-14T07:16:58;14.73;;;4.50;;
44842;SDS011;31884;52.538;13.820;2023-06-14T07:19:24;5.72;;;3.53;;
44842;SDS011;31884;52.538;13.820;2023-06-14T07:21:49;6.57;;;3.92;;
44842;SDS011;31884;52.538;13.820;2023-06-14T07:24:15;5.05;;;4.28;;
44842;SDS011;31884;52.538;13.820;2023-06-14T07:26:40;6.38;;;3.53;;
44842;SDS011;31884;52.538;13.820;2023-06-14T07:29:06;7.72;;;3.50;;
44842;SDS011;31884;52.538;13.820;2023-06-14T07:31:31;4.18;;;3.58;;
44842;SDS011;31884;52.538;13.820;2023-06-14T07:33:57;3.67;;;2.80;;
44842;SDS011;31884;52.538;13.820;2023-06-14T07:36:22;4.45;;;3.15;;
44842;SDS011;31884;52.538;13.820;2023-06-14T07:38:48;4.38;;;3.20;;
44842;SDS011;31884;52.538;13.820;2023-06-14T07:41:13;4.93;;;3.63;;
44842;SDS011;31884;52.538;13.820;2023-06-14T07:43:39;5.65;;;3.40;;
44842;SDS011;31884;52.538;13.820;2023-06-14T07:46:04;5.05;;;3.80;;
44842;SDS011;31884;52.538;13.820;2023-06-14T07:48:30;5.13;;;3.42;;
44842;SDS011;31884;52.538;13.820;2023-06-14T07:50:56;5.35;;;3.35;;
44842;SDS011;31884;52.538;13.820;2023-06-14T07:53:21;7.85;;;4.05;;
44842;SDS011;31884;52.538;13.820;2023-06-14T07:55:46;5.78;;;3.40;;
44842;SDS011;31884;52.538;13.820;2023-06-14T07:58:12;5.60;;;3.05;;
44842;SDS011;31884;52.538;13.820;2023-06-14T08:00:38;10.35;;;4.05;;
44842;SDS011;31884;52.538;13.820;2023-06-14T08:03:03;3.75;;;3.33;;
44842;SDS011;31884;52.538;13.820;2023-06-14T08:05:29;4.13;;;3.33;;
44842;SDS011;31884;52.538;13.820;2023-06-14T08:07:54;4.47;;;2.92;;
44842;SDS011;31884;52.538;13.820;2023-06-14T08:10:20;6.63;;;3.30;;
44842;SDS011;31884;52.538;13.820;2023-06-14T08:12:46;3.65;;;3.15;;
44842;SDS011;31884;52.538;13.820;2023-06-14T08:15:13;3.88;;;3.17;;
44842;SDS011;31884;52.538;13.820;2023-06-14T08:17:38;4.32;;;3.20;;
44842;SDS011;31884;52.538;13.820;2023-06-14T08:20:04;4.32;;;2.90;;
44842;SDS011;31884;52.538;13.820;2023-06-14T08:22:31;4.00;;;2.80;;
44842;SDS011;31884;52.538;13.820;2023-06-14T08:24:59;4.35;;;2.55;;
44842;SDS011;31884;52.538;13.820;2023-06-14T08:27:24;6.93;;;3.20;;
44842;SDS011;31884;52.538;13.820;2023-06-14T08:29:50;4.75;;;2.88;;
44842;SDS011;31884;52.538;13.820;2023-06-14T08:32:16;4.68;;;3.03;;
44842;SDS011;31884;52.538;13.820;2023-06-14T08:34:41;5.38;;;2.78;;
44842;SDS011;31884;52.538;13.820;2023-06-14T08:37:07;4.30;;;3.17;;
44842;SDS011;31884;52.538;13.820;2023-06-14T08:39:32;3.85;;;3.08;;
44842;SDS011;31884;52.538;13.820;2023-06-14T08:41:58;3.95;;;2.55;;
44842;SDS011;31884;52.538;13.820;2023-06-14T08:44:26;4.45;;;2.40;;
44842;SDS011;31884;52.538;13.820;2023-06-14T08:46:51;5.93;;;2.80;;
44842;SDS011;31884;52.538;13.820;2023-06-14T08:49:19;2.75;;;2.30;;
44842;SDS011;31884;52.538;13.820;2023-06-14T08:51:46;4.20;;;2.72;;
44842;SDS011;31884;52.538;13.820;2023-06-14T08:54:16;3.45;;;2.10;;
44842;SDS011;31884;52.538;13.820;2023-06-14T08:56:45;4.70;;;2.60;;
44842;SDS011;31884;52.538;13.820;2023-06-14T08:59:13;3.22;;;2.22;;
44842;SDS011;31884;52.538;13.820;2023-06-14T09:01:40;2.78;;;2.30;;
44842;SDS011;31884;52.538;13.820;2023-06-14T09:04:05;2.90;;;2.08;;
44842;SDS011;31884;52.538;13.820;2023-06-14T09:06:31;2.25;;;2.05;;
44842;SDS011;31884;52.538;13.820;2023-06-14T09:08:58;3.92;;;2.03;;
44842;SDS011;31884;52.538;13.820;2023-06-14T09:11:24;4.07;;;2.13;;
44842;SDS011;31884;52.538;13.820;2023-06-14T09:13:50;2.97;;;2.00;;
44842;SDS011;31884;52.538;13.820;2023-06-14T09:16:16;2.45;;;2.22;;
44842;SDS011;31884;52.538;13.820;2023-06-14T09:18:43;3.20;;;2.55;;
44842;SDS011;31884;52.538;13.820;2023-06-14T09:21:12;3.22;;;2.35;;
44842;SDS011;31884;52.538;13.820;2023-06-14T09:26:09;4.15;;;2.83;;
44842;SDS011;31884;52.538;13.820;2023-06-14T09:28:42;3.10;;;2.35;;
44842;SDS011;31884;52.538;13.820;2023-06-14T09:31:09;3.45;;;2.13;;
44842;SDS011;31884;52.538;13.820;2023-06-14T09:33:36;4.88;;;2.60;;
44842;SDS011;31884;52.538;13.820;2023-06-14T09:36:01;3.72;;;2.60;;
44842;SDS011;31884;52.538;13.820;2023-06-14T09:38:28;2.75;;;2.30;;
44842;SDS011;31884;52.538;13.820;2023-06-14T09:40:55;6.90;;;2.70;;
44842;SDS011;31884;52.538;13.820;2023-06-14T09:43:22;4.68;;;3.00;;
44842;SDS011;31884;52.538;13.820;2023-06-14T09:45:48;2.47;;;2.15;;
44842;SDS011;31884;52.538;13.820;2023-06-14T09:48:16;4.45;;;2.58;;
44842;SDS011;31884;52.538;13.820;2023-06-14T09:50:44;2.95;;;2.35;;
44842;SDS011;31884;52.538;13.820;2023-06-14T09:53:11;6.25;;;2.28;;
44842;SDS011;31884;52.538;13.820;2023-06-14T09:55:38;2.92;;;2.30;;
44842;SDS011;31884;52.538;13.820;2023-06-14T09:58:07;6.68;;;3.00;;
44842;SDS011;31884;52.538;13.820;2023-06-14T10:00:34;2.97;;;2.65;;
44842;SDS011;31884;52.538;13.820;2023-06-14T10:03:14;2.95;;;2.47;;
44842;SDS011;31884;52.538;13.820;2023-06-14T10:05:47;3.22;;;2.50;;
44842;SDS011;31884;52.538;13.820;2023-06-14T10:08:15;2.90;;;2.55;;
44842;SDS011;31884;52.538;13.820;2023-06-14T10:10:43;4.35;;;2.83;;
44842;SDS011;31884;52.538;13.820;2023-06-14T10:13:09;5.15;;;2.80;;
44842;SDS011;31884;52.538;13.820;2023-06-14T10:15:45;5.30;;;3.00;;
44842;SDS011;31884;52.538;13.820;2023-06-14T10:18:48;3.92;;;2.08;;
44842;SDS011;31884;52.538;13.820;2023-06-14T10:21:14;3.30;;;2.38;;
44842;SDS011;31884;52.538;13.820;2023-06-14T10:23:46;3.13;;;2.25;;
44842;SDS011;31884;52.538;13.820;2023-06-14T10:26:20;3.78;;;2.38;;
44842;SDS011;31884;52.538;13.820;2023-06-14T10:28:56;4.32;;;2.50;;
44842;SDS011;31884;52.538;13.820;2023-06-14T10:31:48;3.63;;;2.38;;
44842;SDS011;31884;52.538;13.820;2023-06-14T10:34:23;8.18;;;2.53;;
44842;SDS011;31884;52.538;13.820;2023-06-14T10:39:36;2.63;;;2.17;;
44842;SDS011;31884;52.538;13.820;2023-06-14T10:42:06;3.55;;;2.55;;
44842;SDS011;31884;52.538;13.820;2023-06-14T10:44:32;4.05;;;2.70;;
44842;SDS011;31884;52.538;13.820;2023-06-14T10:46:59;5.65;;;2.90;;
44842;SDS011;31884;52.538;13.820;2023-06-14T10:49:36;3.08;;;2.70;;
44842;SDS011;31884;52.538;13.820;2023-06-14T10:52:15;2.97;;;2.60;;
44842;SDS011;31884;52.538;13.820;2023-06-14T10:54:55;3.00;;;2.30;;
44842;SDS011;31884;52.538;13.820;2023-06-14T11:00:11;6.03;;;3.03;;
44842;SDS011;31884;52.538;13.820;2023-06-14T11:05:55;7.82;;;2.83;;
44842;SDS011;31884;52.538;13.820;2023-06-14T11:08:27;9.52;;;3.58;;
44842;SDS011;31884;52.538;13.820;2023-06-14T11:11:06;6.70;;;2.97;;
44842;SDS011;31884;52.538;13.820;2023-06-14T11:13:33;7.68;;;3.28;;
44842;SDS011;31884;52.538;13.820;2023-06-14T11:16:02;5.35;;;2.75;;
44842;SDS011;31884;52.538;13.820;2023-06-14T11:18:36;4.68;;;2.67;;
44842;SDS011;31884;52.538;13.820;2023-06-14T11:21:01;4.28;;;2.70;;
44842;SDS011;31884;52.538;13.820;2023-06-14T11:23:27;4.82;;;3.35;;
44842;SDS011;31884;52.538;13.820;2023-06-14T11:25:53;2.95;;;2.63;;
44842;SDS011;31884;52.538;13.820;2023-06-14T11:28:19;4.25;;;2.65;;
44842;SDS011;31884;52.538;13.820;2023-06-14T11:30:46;5.30;;;2.67;;
44842;SDS011;31884;52.538;13.820;2023-06-14T11:33:16;5.45;;;3.05;;
44842;SDS011;31884;52.538;13.820;2023-06-14T11:35:43;3.95;;;3.20;;
44842;SDS011;31884;52.538;13.820;2023-06-14T11:38:09;5.20;;;3.47;;
44842;SDS011;31884;52.538;13.820;2023-06-14T11:40:37;5.25;;;3.10;;
44842;SDS011;31884;52.538;13.820;2023-06-14T11:43:03;3.95;;;2.92;;
44842;SDS011;31884;52.538;13.820;2023-06-14T11:45:29;3.25;;;2.45;;
44842;SDS011;31884;52.538;13.820;2023-06-14T11:47:56;4.30;;;2.80;;
44842;SDS011;31884;52.538;13.820;2023-06-14T11:50:22;2.97;;;2.22;;
44842;SDS011;31884;52.538;13.820;2023-06-14T11:52:52;6.70;;;3.60;;
44842;SDS011;31884;52.538;13.820;2023-06-14T11:55:22;6.22;;;2.97;;
44842;SDS011;31884;52.538;13.820;2023-06-14T11:57:49;4.93;;;3.00;;
44842;SDS011;31884;52.538;13.820;2023-06-14T12:00:15;4.32;;;2.90;;
44842;SDS011;31884;52.538;13.820;2023-06-14T12:02:41;2.60;;;2.35;;
44842;SDS011;31884;52.538;13.820;2023-06-14T12:05:07;4.32;;;2.60;;
44842;SDS011;31884;52.538;13.820;2023-06-14T12:07:35;3.58;;;2.67;;
44842;SDS011;31884;52.538;13.820;2023-06-14T12:10:05;6.15;;;3.65;;
44842;SDS011;31884;52.538;13.820;2023-06-14T12:12:36;5.13;;;3.15;;
44842;SDS011;31884;52.538;13.820;2023-06-14T12:15:04;5.65;;;3.58;;
44842;SDS011;31884;52.538;13.820;2023-06-14T12:17:34;5.38;;;3.25;;
44842;SDS011;31884;52.538;13.820;2023-06-14T12:20:10;5.20;;;3.50;;
44842;SDS011;31884;52.538;13.820;2023-06-14T12:22:52;7.32;;;3.72;;
44842;SDS011;31884;52.538;13.820;2023-06-14T12:27:56;5.55;;;3.08;;
44842;SDS011;31884;52.538;13.820;2023-06-14T12:30:29;5.10;;;3.35;;
44842;SDS011;31884;52.538;13.820;2023-06-14T12:32:54;3.08;;;2.42;;
44842;SDS011;31884;52.538;13.820;2023-06-14T12:35:19;4.15;;;2.75;;
44842;SDS011;31884;52.538;13.820;2023-06-14T12:37:46;5.78;;;3.10;;
44842;SDS011;31884;52.538;13.820;2023-06-14T12:40:12;9.00;;;3.72;;
44842;SDS011;31884;52.538;13.820;2023-06-14T12:42:38;5.45;;;3.03;;
44842;SDS011;31884;52.538;13.820;2023-06-14T12:45:04;6.18;;;3.45;;
44842;SDS011;31884;52.538;13.820;2023-06-14T12:47:30;9.98;;;3.03;;
44842;SDS011;31884;52.538;13.820;2023-06-14T12:49:56;11.45;;;3.80;;
44842;SDS011;31884;52.538;13.820;2023-06-14T12:52:21;5.72;;;3.45;;
44842;SDS011;31884;52.538;13.820;2023-06-14T12:54:46;4.50;;;3.30;;
44842;SDS011;31884;52.538;13.820;2023-06-14T12:57:12;9.48;;;3.38;;
44842;SDS011;31884;52.538;13.820;2023-06-14T12:59:37;5.78;;;3.47;;
44842;SDS011;31884;52.538;13.820;2023-06-14T13:04:38;5.90;;;3.20;;
44842;SDS011;31884;52.538;13.820;2023-06-14T13:07:04;7.45;;;3.33;;
44842;SDS011;31884;52.538;13.820;2023-06-14T13:09:30;4.63;;;2.67;;
44842;SDS011;31884;52.538;13.820;2023-06-14T13:11:56;7.90;;;2.75;;
44842;SDS011;31884;52.538;13.820;2023-06-14T13:14:21;7.50;;;3.13;;
44842;SDS011;31884;52.538;13.820;2023-06-14T13:16:47;5.00;;;2.72;;
44842;SDS011;31884;52.538;13.820;2023-06-14T13:19:13;4.70;;;2.70;;
44842;SDS011;31884;52.538;13.820;2023-06-14T13:21:38;7.03;;;3.70;;
44842;SDS011;31884;52.538;13.820;2023-06-14T13:24:04;7.53;;;3.40;;
44842;SDS011;31884;52.538;13.820;2023-06-14T13:26:29;4.15;;;2.75;;
44842;SDS011;31884;52.538;13.820;2023-06-14T13:28:55;5.22;;;3.35;;
44842;SDS011;31884;52.538;13.820;2023-06-14T13:31:20;4.53;;;3.20;;
44842;SDS011;31884;52.538;13.820;2023-06-14T13:33:46;3.28;;;2.90;;
44842;SDS011;31884;52.538;13.820;2023-06-14T13:36:11;6.57;;;2.90;;
44842;SDS011;31884;52.538;13.820;2023-06-14T13:38:37;3.75;;;2.97;;
44842;SDS011;31884;52.538;13.820;2023-06-14T13:41:02;5.43;;;2.80;;
44842;SDS011;31884;52.538;13.820;2023-06-14T13:43:28;8.40;;;3.30;;
44842;SDS011;31884;52.538;13.820;2023-06-14T13:45:53;4.72;;;3.30;;
44842;SDS011;31884;52.538;13.820;2023-06-14T13:48:19;5.05;;;3.40;;
44842;SDS011;31884;52.538;13.820;2023-06-14T13:50:45;8.25;;;3.70;;
44842;SDS011;31884;52.538;13.820;2023-06-14T13:53:11;5.35;;;3.38;;
44842;SDS011;31884;52.538;13.820;2023-06-14T13:55:36;6.50;;;3.67;;
44842;SDS011;31884;52.538;13.820;2023-06-14T13:58:02;5.18;;;2.65;;
44842;SDS011;31884;52.538;13.820;2023-06-14T14:00:27;6.88;;;3.45;;
44842;SDS011;31884;52.538;13.820;2023-06-14T14:02:53;7.10;;;3.15;;
44842;SDS011;31884;52.538;13.820;2023-06-14T14:05:19;5.50;;;3.28;;
44842;SDS011;31884;52.538;13.820;2023-06-14T14:07:45;11.27;;;3.75;;
44842;SDS011;31884;52.538;13.820;2023-06-14T14:10:11;4.28;;;3.08;;
44842;SDS011;31884;52.538;13.820;2023-06-14T14:12:38;6.40;;;3.35;;
44842;SDS011;31884;52.538;13.820;2023-06-14T14:15:04;7.13;;;3.97;;
44842;SDS011;31884;52.538;13.820;2023-06-14T14:17:32;6.78;;;3.33;;
44842;SDS011;31884;52.538;13.820;2023-06-14T14:19:58;9.10;;;3.30;;
44842;SDS011;31884;52.538;13.820;2023-06-14T14:22:23;6.13;;;2.97;;
44842;SDS011;31884;52.538;13.820;2023-06-14T14:24:49;9.73;;;3.22;;
44842;SDS011;31884;52.538;13.820;2023-06-14T14:27:15;5.55;;;3.17;;
44842;SDS011;31884;52.538;13.820;2023-06-14T14:29:40;3.92;;;2.88;;
44842;SDS011;31884;52.538;13.820;2023-06-14T14:32:06;4.75;;;3.42;;
44842;SDS011;31884;52.538;13.820;2023-06-14T14:34:31;4.70;;;3.22;;
44842;SDS011;31884;52.538;13.820;2023-06-14T14:36:57;6.35;;;3.22;;
44842;SDS011;31884;52.538;13.820;2023-06-14T14:39:22;8.55;;;3.00;;
44842;SDS011;31884;52.538;13.820;2023-06-14T14:41:48;7.97;;;3.50;;
44842;SDS011;31884;52.538;13.820;2023-06-14T14:44:15;7.43;;;2.90;;
44842;SDS011;31884;52.538;13.820;2023-06-14T14:46:40;4.97;;;2.70;;
44842;SDS011;31884;52.538;13.820;2023-06-14T14:49:06;7.45;;;2.90;;
44842;SDS011;31884;52.538;13.820;2023-06-14T14:51:32;5.15;;;3.13;;